Time;durP1;ratioP1;P1;durP2;ratioP2;P2;SDS_P1;SDS_P2;PMS_P1;PMS_P2;Temp;Humidity;BMP_temperature;BMP_pressure;BME280_temperature;BME280_humidity;BME280_pressure;Samples;Min_cycle;Max_cycle;Signal;HPM_P1;HPM_P2
2024/02/09 00:00:08;;;;;;;74.13;40.05;;;205.60;2252.80;;;;;;4823442;29;20026;-84
2024/02/09 00:02:35;;;;;;;59.80;33.97;;;;;;;;;;4832562;29;20034;-83
2024/02/09 00:05:01;;;;;;;35.33;21.23;;;;;;;;;;4822707;29;20019;-83
2024/02/09 00:07:27;;;;;;;29.10;17.35;;;;;;;;;;4822229;29;20465;-84
2024/02/09 00:09:55;;;;;;;78.47;46.80;;;;;;;;;;4828046;29;20523;-84
2024/02/09 00:12:21;;;;;;;45.92;25.95;;;;;;;;;;4826215;29;20508;-85
2024/02/09 00:14:50;;;;;;;43.70;28.90;;;;;;;;;;4829574;29;20158;-80
2024/02/09 00:17:16;;;;;;;88.28;51.95;;;;;;;;;;4830740;29;20034;-81
2024/02/09 00:19:43;;;;;;;26.13;14.68;;;;;;;;;;4833263;29;20030;-85
2024/02/09 00:22:11;;;;;;;19.50;12.25;;;205.50;2252.80;;;;;;4821002;29;20044;-83
2024/02/09 00:24:42;;;;;;;17.60;10.82;;;;;;;;;;4824629;29;20034;-85
2024/02/09 00:27:08;;;;;;;54.30;35.08;;;;;;;;;;4829881;29;20038;-83
2024/02/09 00:29:35;;;;;;;66.35;39.53;;;;;;;;;;4829390;29;20022;-78
2024/02/09 00:32:01;;;;;;;46.15;28.25;;;;;;;;;;4826378;29;20486;-74
2024/02/09 00:34:27;;;;;;;34.88;23.25;;;;;;;;;;4831736;29;20033;-82
2024/02/09 00:36:55;;;;;;;20.10;11.80;;;;;;;;;;4827290;29;20042;-82
2024/02/09 00:39:22;;;;;;;56.92;34.33;;;;;;;;;;4829641;29;20018;-81
2024/02/09 00:41:50;;;;;;;46.58;30.05;;;;;;;;;;4829371;29;20037;-84
2024/02/09 00:44:17;;;;;;;30.15;18.35;;;;;;;;;;4822845;29;20046;-75
2024/02/09 00:46:45;;;;;;;41.28;24.88;;;;;;;;;;4825762;29;20103;-78
2024/02/09 00:49:13;;;;;;;41.97;26.58;;;;;;;;;;4824164;29;20508;-82
2024/02/09 00:51:39;;;;;;;42.60;28.60;;;;;;;;;;4828581;29;20379;-82
2024/02/09 00:54:05;;;;;;;35.47;24.33;;;;;;;;;;4823103;29;20089;-78
2024/02/09 00:56:33;;;;;;;22.73;15.85;;;;;;;;;;4826295;29;20051;-82
2024/02/09 00:59:01;;;;;;;45.97;30.13;;;;;;;;;;4831265;29;20034;-77
2024/02/09 01:01:28;;;;;;;52.55;28.65;;;;;;;;;;4837284;29;20049;-74
2024/02/09 01:03:54;;;;;;;31.02;20.02;;;231.30;2252.80;;;;;;4838189;29;20029;-80
2024/02/09 01:06:21;;;;;;;28.30;16.30;;;231.30;2252.80;;;;;;4837892;29;20044;-71
2024/02/09 01:08:47;;;;;;;48.03;28.83;;;231.30;2252.80;;;;;;4841096;29;20086;-72
2024/02/09 01:11:14;;;;;;;57.33;33.88;;;231.30;2252.80;;;;;;4841014;29;20026;-74
2024/02/09 02:46:28;;;;;;;17.58;11.10;;;205.60;2252.80;;;;;;4839461;29;20458;-78
2024/02/09 03:05:25;;;;;;;16.58;9.00;;;230.40;2252.80;;;;;;4839839;29;20033;-75
2024/02/09 03:07:56;;;;;;;16.30;12.55;;;205.70;2252.80;;;;;;4839483;29;20098;-72
2024/02/09 03:10:22;;;;;;;14.40;9.45;;;230.60;2252.80;;;;;;4839646;29;20025;-79
2024/02/09 03:12:49;;;;;;;15.48;10.32;;;230.70;2252.80;;;;;;4839361;29;20113;-79
2024/02/09 03:15:18;;;;;;;12.27;8.77;;;230.70;2252.80;;;;;;4839490;29;20105;-77
2024/02/09 03:17:49;;;;;;;13.05;9.18;;;230.80;2252.80;;;;;;4839244;29;20037;-77
2024/02/09 03:20:14;;;;;;;11.23;7.90;;;230.80;2252.80;;;;;;4839364;29;20014;-75
2024/02/09 03:22:41;;;;;;;14.05;8.75;;;230.80;2252.80;;;;;;4838906;29;20034;-74
2024/02/09 03:25:07;;;;;;;11.32;7.53;;;230.90;2252.80;;;;;;4839223;29;20040;-79
2024/02/09 03:27:35;;;;;;;12.48;7.15;;;231.00;2252.80;;;;;;4838572;29;20038;-77
2024/02/09 03:30:05;;;;;;;13.05;7.28;;;231.10;2252.80;;;;;;4839085;29;20038;-77
2024/02/09 03:32:32;;;;;;;16.67;10.10;;;231.20;2252.80;;;;;;4839057;29;20025;-79
2024/02/09 03:34:59;;;;;;;11.23;8.05;;;231.00;2252.80;;;;;;4839103;29;20034;-79
2024/02/09 03:37:30;;;;;;;12.57;8.18;;;231.20;2252.80;;;;;;4838845;29;20085;-79
2024/02/09 03:39:56;;;;;;;14.52;7.13;;;231.30;2252.80;;;;;;4838787;29;20077;-77
2024/02/09 03:42:23;;;;;;;10.85;7.00;;;231.20;2252.80;;;;;;4838850;29;20029;-81
2024/02/09 03:44:55;;;;;;;12.07;9.20;;;231.30;2252.80;;;;;;4838920;29;20473;-81
2024/02/09 03:47:26;;;;;;;14.77;8.13;;;231.20;2252.80;;;;;;4838751;29;20057;-80
2024/02/09 03:49:52;;;;;;;10.25;5.53;;;231.30;2252.80;;;;;;4839048;29;20022;-81
2024/02/09 03:52:20;;;;;;;11.77;7.38;;;256.20;2252.80;;;;;;4838348;29;20022;-74
2024/02/09 03:54:53;;;;;;;11.73;7.10;;;256.30;2252.80;;;;;;4838600;29;20054;-74
2024/02/09 03:57:19;;;;;;;;;;;256.50;2252.80;;;;;;4838914;29;20037;-72
2024/02/09 03:59:46;;;;;;;11.23;7.32;;;256.60;2252.80;;;;;;4839071;29;20049;-74
2024/02/09 04:02:12;;;;;;;12.93;9.13;;;256.80;2252.80;;;;;;4838665;29;20469;-76
2024/02/09 04:04:38;;;;;;;13.70;9.15;;;256.80;2252.80;;;;;;4838489;29;20129;-77
2024/02/09 04:07:08;;;;;;;13.77;6.25;;;256.70;2252.80;;;;;;4826605;29;20544;-76
2024/02/09 04:09:35;;;;;;;10.98;6.93;;;256.60;2252.80;;;;;;4838527;29;20026;-75
2024/02/09 04:12:01;;;;;;;8.82;6.40;;;256.50;2252.80;;;;;;4838644;29;20082;-78
2024/02/09 04:14:29;;;;;;;9.27;6.22;;;256.50;2252.80;;;;;;4838058;29;20034;-76
2024/02/09 04:16:56;;;;;;;9.30;5.47;;;256.50;2252.80;;;;;;4838623;29;20363;-74
2024/02/09 04:19:23;;;;;;;8.10;5.05;;;256.50;2252.80;;;;;;4838525;29;20116;-73
2024/02/09 04:21:49;;;;;;;12.70;8.50;;;256.60;2252.80;;;;;;4837993;29;20026;-74
2024/02/09 04:24:16;;;;;;;17.50;11.20;;;256.60;2252.80;;;;;;4838260;29;20045;-73
2024/02/09 04:26:44;;;;;;;31.73;28.70;;;256.60;2252.80;;;;;;4838404;29;20038;-73
2024/02/09 04:29:11;;;;;;;26.40;16.55;;;256.50;2252.80;;;;;;4837934;29;20112;-74
2024/02/09 04:31:41;;;;;;;24.13;14.68;;;256.40;2252.80;;;;;;4837142;29;20068;-77
2024/02/09 04:34:09;;;;;;;140.02;73.50;;;256.30;2252.80;;;;;;4838129;29;20037;-74
2024/02/09 04:36:40;;;;;;;34.38;20.02;;;256.10;2252.80;;;;;;4838636;29;20037;-77
2024/02/09 04:39:15;;;;;;;41.13;23.58;;;231.10;2252.80;;;;;;4839549;29;20250;-78
2024/02/09 04:41:47;;;;;;;21.23;15.02;;;231.00;2252.80;;;;;;4842233;29;20078;-79
2024/02/09 04:44:13;;;;;;;23.98;12.95;;;231.00;2252.80;;;;;;4825690;29;20511;-78
2024/02/09 04:46:40;;;;;;;28.48;17.90;;;231.10;2252.80;;;;;;4841998;29;20078;-78
2024/02/09 04:49:08;;;;;;;27.42;16.90;;;231.00;2252.80;;;;;;4842195;29;20814;-77
2024/02/09 04:51:38;;;;;;;20.38;12.27;;;231.00;2252.80;;;;;;4842050;29;20389;-77
2024/02/09 04:54:06;;;;;;;18.05;12.63;;;231.20;2252.80;;;;;;4829644;29;20049;-79
2024/02/09 04:56:32;;;;;;;14.07;8.82;;;231.10;2252.80;;;;;;4841904;29;20429;-83
2024/02/09 04:59:04;;;;;;;19.95;13.73;;;231.10;2252.80;;;;;;4841955;29;20033;-83
2024/02/09 05:01:31;;;;;;;14.10;8.65;;;231.10;2252.80;;;;;;4841786;29;20488;-79
2024/02/09 05:03:58;;;;;;;14.73;9.98;;;231.20;2252.80;;;;;;4841627;29;20025;-82
2024/02/09 05:06:26;;;;;;;18.48;12.10;;;231.10;2252.80;;;;;;4841756;29;20030;-81
2024/02/09 05:08:57;;;;;;;18.55;14.70;;;231.20;2252.80;;;;;;4841606;29;20384;-81
2024/02/09 05:11:28;;;;;;;12.88;9.38;;;231.20;2252.80;;;;;;4841458;29;20104;-81
2024/02/09 05:13:57;;;;;;;14.02;8.68;;;231.20;2252.80;;;;;;4841955;29;20037;-80
2024/02/09 05:16:23;;;;;;;21.40;11.70;;;231.20;2252.80;;;;;;4841524;29;20033;-81
2024/02/09 05:18:52;;;;;;;20.42;11.77;;;256.20;2252.80;;;;;;4841442;29;20030;-81
2024/02/09 05:21:18;;;;;;;8.15;5.43;;;256.30;2252.80;;;;;;4841058;29;20033;-82
2024/02/09 05:23:44;;;;;;;14.45;8.27;;;256.70;2252.80;;;;;;4841254;29;20033;-74
2024/02/09 05:26:11;;;;;;;11.32;7.15;;;256.60;2252.80;;;;;;4841075;29;20041;-73
2024/02/09 05:28:39;;;;;;;17.20;10.38;;;256.60;2252.80;;;;;;4841411;29;20365;-73
2024/02/09 05:31:15;;;;;;;19.58;9.85;;;256.60;2252.80;;;;;;4841281;29;20014;-73
2024/02/09 05:33:42;;;;;;;17.30;10.00;;;256.50;2252.80;;;;;;4841306;29;20026;-79
2024/02/09 05:36:17;;;;;;;23.05;11.57;;;256.40;2252.80;;;;;;4841238;29;20026;-73
2024/02/09 05:38:43;;;;;;;52.22;29.52;;;256.50;2252.80;;;;;;4841103;29;20218;-79
2024/02/09 05:41:08;;;;;;;12.60;6.43;;;256.80;2252.80;;;;;;4833437;29;20077;-81
2024/02/09 05:43:36;;;;;;;16.75;9.45;;;282.00;2278.40;;;;;;4841107;29;20146;-82
2024/02/09 05:46:01;;;;;;;18.45;11.57;;;282.10;2278.40;;;;;;4840849;29;20030;-82
2024/02/09 05:48:27;;;;;;;20.17;10.00;;;282.20;2278.40;;;;;;4848561;29;20029;-81
2024/02/09 05:50:53;;;;;;;17.45;9.50;;;282.20;2278.40;;;;;;4844938;29;20045;-79
2024/02/09 05:53:19;;;;;;;17.80;10.18;;;282.20;2278.40;;;;;;4840291;29;20049;-73
2024/02/09 05:55:47;;;;;;;26.95;14.65;;;282.30;2278.40;;;;;;4840967;29;20034;-73
2024/02/09 05:58:13;;;;;;;22.65;13.52;;;282.20;2278.40;;;;;;4840898;29;20044;-73
2024/02/09 06:00:39;;;;;;;53.03;31.20;;;282.20;2278.40;;;;;;4840827;29;20026;-73
2024/02/09 06:03:08;;;;;;;29.08;19.45;;;282.00;2278.40;;;;;;4840759;29;20135;-77
2024/02/09 06:05:38;;;;;;;30.50;21.05;;;281.80;2278.40;;;;;;4840835;29;20034;-78
2024/02/09 06:08:08;;;;;;;68.22;39.75;;;281.60;2278.40;;;;;;4826607;29;20417;-79
2024/02/09 06:10:33;;;;;;;57.58;38.55;;;256.50;2252.80;;;;;;4840793;29;20060;-77
2024/02/09 06:12:59;;;;;;;54.90;34.55;;;256.40;2252.80;;;;;;4840175;29;20553;-81
2024/02/09 06:15:25;;;;;;;40.22;29.88;;;256.20;2252.80;;;;;;4840443;29;20037;-78
2024/02/09 06:17:51;;;;;;;57.50;34.70;;;256.10;2252.80;;;;;;4842226;29;20030;-73
2024/02/09 06:20:19;;;;;;;53.22;35.67;;;256.30;2252.80;;;;;;4850411;29;20113;-77
2024/02/09 06:22:46;;;;;;;50.60;34.15;;;256.20;2252.80;;;;;;4840119;29;20026;-79
2024/02/09 06:25:12;;;;;;;95.50;62.22;;;256.20;2252.80;;;;;;4840550;29;20347;-75
2024/02/09 06:27:38;;;;;;;99.93;89.13;;;256.10;2252.80;;;;;;4840284;29;20048;-80
2024/02/09 06:30:04;;;;;;;85.18;68.05;;;256.00;2252.80;;;;;;4840344;29;20113;-75
2024/02/09 06:32:31;;;;;;;84.50;66.50;;;256.00;2252.80;;;;;;4840188;29;20064;-75
2024/02/09 06:34:58;;;;;;;72.43;49.25;;;256.10;2252.80;;;;;;4840095;29;20026;-73
2024/02/09 06:37:24;;;;;;;61.97;42.58;;;256.40;2252.80;;;;;;4839855;29;20018;-73
2024/02/09 06:39:50;;;;;;;19.83;12.68;;;256.60;2252.80;;;;;;4839968;29;20121;-82
2024/02/09 06:42:17;;;;;;;109.85;77.72;;;256.70;2252.80;;;;;;4839918;29;20025;-78
2024/02/09 06:44:44;;;;;;;211.23;148.60;;;256.90;2252.80;;;;;;4839810;29;20510;-81
2024/02/09 06:47:10;;;;;;;140.48;88.72;;;256.90;2252.80;;;;;;4839514;29;20034;-81
2024/02/09 06:49:37;;;;;;;108.47;71.90;;;281.80;2278.40;;;;;;4839870;29;20030;-80
2024/02/09 06:52:04;;;;;;;53.78;37.63;;;282.00;2278.40;;;;;;4837044;29;20072;-82
2024/02/09 06:54:30;;;;;;;24.38;16.67;;;282.40;2278.40;;;;;;4830670;29;20049;-72
2024/02/09 06:56:55;;;;;;;29.77;22.70;;;307.40;2304.00;;;;;;4839658;29;20034;-73
2024/02/09 06:59:23;;;;;;;37.80;28.02;;;307.60;2304.00;;;;;;4839743;29;20025;-73
2024/02/09 07:01:51;;;;;;;31.17;24.08;;;307.60;2304.00;;;;;;4838916;29;20602;-73
2024/02/09 07:04:18;;;;;;;38.83;27.10;;;307.50;2304.00;;;;;;4839117;29;20038;-73
2024/02/09 07:06:47;;;;;;;89.10;62.58;;;307.60;2304.00;;;;;;4839777;29;20044;-72
2024/02/09 07:09:18;;;;;;;102.25;71.18;;;307.60;2304.00;;;;;;4839559;29;20036;-73
2024/02/09 07:11:50;;;;;;;96.63;65.25;;;307.40;2304.00;;;;;;4839580;29;20129;-72
2024/02/09 07:14:19;;;;;;;74.47;49.10;;;307.40;2304.00;;;;;;4843179;29;20065;-72
2024/02/09 07:16:49;;;;;;;90.28;59.60;;;307.50;2304.00;;;;;;4833879;29;20116;-77
2024/02/09 07:19:15;;;;;;;80.15;54.30;;;307.60;2304.00;;;;;;4814004;29;20569;-74
2024/02/09 07:21:40;;;;;;;71.10;52.63;;;307.70;2304.00;;;;;;4838544;29;20030;-73
2024/02/09 07:24:08;;;;;;;106.32;83.43;;;307.70;2304.00;;;;;;4839025;29;20525;-75
2024/02/09 07:26:35;;;;;;;39.22;28.75;;;307.80;2304.00;;;;;;4839243;29;20504;-75
2024/02/09 07:29:01;;;;;;;89.78;69.03;;;307.70;2304.00;;;;;;4834344;29;20056;-72
2024/02/09 07:31:27;;;;;;;76.95;57.80;;;307.60;2304.00;;;;;;4839152;29;20068;-77
2024/02/09 07:33:54;;;;;;;83.38;58.28;;;307.60;2304.00;;;;;;4839036;29;20030;-77
2024/02/09 07:36:21;;;;;;;121.78;87.07;;;307.90;2304.00;;;;;;4838895;29;20103;-77
2024/02/09 07:38:47;;;;;;;107.22;75.28;;;308.10;2304.00;;;;;;4829400;29;20109;-78
2024/02/09 07:41:19;;;;;;;123.50;84.28;;;308.00;2304.00;;;;;;4839032;29;20038;-78
2024/02/09 07:43:48;;;;;;;49.20;34.25;;;332.80;2329.60;;;;;;4834144;29;20035;-80
2024/02/09 07:46:15;;;;;;;84.90;55.15;;;308.10;2304.00;;;;;;4834235;29;20041;-81
2024/02/09 07:48:47;;;;;;;40.47;28.00;;;332.90;2329.60;;;;;;4833183;29;20041;-79
2024/02/09 07:51:20;;;;;;;44.45;30.55;;;333.10;2304.00;;;;;;4838755;29;20070;-79
2024/02/09 07:53:52;;;;;;;59.47;37.15;;;333.10;2304.00;;;;;;4834521;29;20428;-74
2024/02/09 07:56:19;;;;;;;47.30;33.93;;;333.30;2278.40;;;;;;4827527;29;20022;-81
2024/02/09 07:58:45;;;;;;;36.40;21.88;;;333.30;2278.40;;;;;;4830318;29;20026;-80
2024/02/09 08:01:11;;;;;;;26.90;19.58;;;333.70;2252.80;;;;;;4828729;29;20099;-72
2024/02/09 08:03:38;;;;;;;40.00;27.77;;;358.50;2227.20;;;;;;4824498;29;20481;-78
2024/02/09 08:06:04;;;;;;;59.78;45.22;;;358.60;2201.60;;;;;;4822741;29;20030;-77
2024/02/09 08:08:30;;;;;;;397.70;293.88;;;358.70;2176.00;;;;;;4823890;29;20103;-78
2024/02/09 08:10:57;;;;;;;212.88;150.73;;;359.00;2176.00;;;;;;4831187;29;20477;-77
2024/02/09 08:13:23;;;;;;;101.53;73.55;;;384.00;2124.80;;;;;;4838165;29;20081;-78
2024/02/09 08:15:49;;;;;;;77.85;37.55;;;358.80;2176.00;;;;;;4838344;29;20113;-79
2024/02/09 08:18:15;;;;;;;59.75;41.30;;;359.00;2150.40;;;;;;4831167;29;20069;-73
2024/02/09 08:20:41;;;;;;;19.20;13.60;;;359.00;2150.40;;;;;;4827355;29;20076;-75
2024/02/09 08:23:07;;;;;;;52.38;41.78;;;359.00;2124.80;;;;;;4821820;29;20094;-77
2024/02/09 08:25:33;;;;;;;81.75;68.82;;;358.90;2150.40;;;;;;4825162;29;20125;-73
2024/02/09 08:28:00;;;;;;;48.63;33.97;;;359.00;2150.40;;;;;;4824995;29;20478;-72
2024/02/09 08:30:26;;;;;;;94.95;52.78;;;359.10;2150.40;;;;;;4828304;29;20030;-75
2024/02/09 08:32:53;;;;;;;72.28;40.85;;;359.10;2176.00;;;;;;4823987;29;20159;-73
2024/02/09 08:35:19;;;;;;;33.53;20.10;;;359.30;2150.40;;;;;;4829522;29;20030;-77
2024/02/09 08:37:45;;;;;;;85.00;42.03;;;384.20;2099.20;;;;;;4828313;29;20026;-73
2024/02/09 08:40:11;;;;;;;291.83;124.75;;;384.30;2099.20;;;;;;4830085;29;20022;-75
2024/02/09 08:42:37;;;;;;;101.57;53.13;;;384.60;2073.60;;;;;;4828380;29;20512;-76
2024/02/09 08:45:03;;;;;;;458.70;194.23;;;384.80;2022.40;;;;;;4832694;29;20414;-74
2024/02/09 08:47:29;;;;;;;105.93;50.88;;;409.80;2048.00;;;;;;4826261;29;20039;-76
2024/02/09 08:49:56;;;;;;;468.17;233.38;;;410.40;1971.20;;;;;;4824587;29;20117;-73
2024/02/09 08:52:21;;;;;;;533.67;320.85;;;435.60;1920.00;;;;;;4827591;29;20473;-72
2024/02/09 08:54:47;;;;;;;410.13;206.38;;;435.90;1894.40;;;;;;4824214;29;20051;-74
2024/02/09 08:57:14;;;;;;;31.95;19.42;;;461.30;1843.20;;;;;;4826505;29;20413;-72
2024/02/09 08:59:41;;;;;;;42.08;29.50;;;486.70;1817.60;;;;;;4828715;29;20113;-74
2024/02/09 09:02:07;;;;;;;37.45;28.67;;;487.30;1740.80;;;;;;4837083;29;20046;-72
2024/02/09 09:04:33;;;;;;;18.75;13.85;;;512.70;1689.60;;;;;;4837499;29;20215;-76
2024/02/09 09:07:00;;;;;;;27.70;17.58;;;537.80;1664.00;;;;;;4819438;29;20045;-74
2024/02/09 09:09:26;;;;;;;50.65;38.13;;;512.90;1638.40;;;;;;4819795;29;20483;-73
2024/02/09 09:11:55;;;;;;;71.15;49.60;;;538.30;1612.80;;;;;;4831921;29;20038;-74
2024/02/09 09:14:21;;;;;;;29.83;19.85;;;564.10;1587.20;;;;;;4829602;29;20058;-72
2024/02/09 09:16:47;;;;;;;28.90;16.17;;;563.80;1587.20;;;;;;4820747;29;20125;-74
2024/02/09 09:19:14;;;;;;;21.98;14.90;;;563.30;1612.80;;;;;;4826355;29;20134;-76
2024/02/09 09:21:41;;;;;;;26.92;17.35;;;563.40;1587.20;;;;;;4823182;29;20477;-76
2024/02/09 09:24:10;;;;;;;87.68;60.30;;;563.90;1587.20;;;;;;4822668;29;20027;-84
2024/02/09 09:26:36;;;;;;;43.60;31.20;;;588.90;1536.00;;;;;;4839662;29;20041;-81
2024/02/09 09:29:02;;;;;;;23.13;16.67;;;589.50;1510.40;;;;;;4839563;29;20034;-83
2024/02/09 09:31:31;;;;;;;23.00;17.17;;;615.20;1433.60;;;;;;4829503;29;20029;-81
2024/02/09 09:33:57;;;;;;;27.73;16.70;;;614.60;1459.20;;;;;;4839359;29;20026;-82
2024/02/09 09:36:23;;;;;;;17.70;13.98;;;589.00;1510.40;;;;;;4841689;29;20034;-82
2024/02/09 09:38:49;;;;;;;21.05;15.93;;;563.90;1536.00;;;;;;4841202;29;20030;-81
2024/02/09 09:41:17;;;;;;;19.45;15.07;;;563.90;1536.00;;;;;;4841617;29;20041;-82
2024/02/09 09:43:43;;;;;;;27.25;19.83;;;563.40;1561.60;;;;;;4841155;29;20082;-83
2024/02/09 09:46:11;;;;;;;43.28;31.27;;;563.60;1561.60;;;;;;4841180;29;20034;-83
2024/02/09 09:48:39;;;;;;;14.70;11.80;;;563.40;1561.60;;;;;;4841232;29;20060;-83
2024/02/09 09:51:05;;;;;;;31.23;24.90;;;563.40;1587.20;;;;;;4841265;29;20446;-78
2024/02/09 09:53:39;;;;;;;15.73;9.27;;;538.50;1561.60;;;;;;4840665;29;20049;-80
2024/02/09 09:56:09;;;;;;;163.27;99.03;;;537.90;1587.20;;;;;;4840135;29;20037;-83
2024/02/09 09:58:36;;;;;;;38.65;22.38;;;512.90;1587.20;;;;;;4824940;29;20069;-81
2024/02/09 10:01:07;;;;;;;22.95;13.98;;;512.80;1612.80;;;;;;4824345;29;20397;-82
2024/02/09 10:03:36;;;;;;;25.52;16.30;;;512.70;1587.20;;;;;;4853066;29;20018;-82
2024/02/09 10:06:03;;;;;;;17.80;10.15;;;512.60;1587.20;;;;;;4836898;29;20027;-80
2024/02/09 10:08:30;;;;;;;25.70;15.10;;;512.70;1587.20;;;;;;4838650;29;20034;-81
2024/02/09 10:10:56;;;;;;;15.60;8.70;;;512.60;1587.20;;;;;;4840551;29;20469;-71
2024/02/09 10:13:25;;;;;;;20.02;9.27;;;512.60;1587.20;;;;;;4840697;29;20041;-70
2024/02/09 10:15:52;;;;;;;17.65;11.27;;;512.50;1587.20;;;;;;4840675;29;20474;-71
2024/02/09 10:18:19;;;;;;;40.03;22.13;;;512.20;1612.80;;;;;;4840500;29;20379;-70
2024/02/09 10:20:46;;;;;;;125.38;61.90;;;512.00;1612.80;;;;;;4840506;29;20125;-70
2024/02/09 10:23:16;;;;;;;66.03;33.92;;;512.00;1612.80;;;;;;4840313;29;20034;-81
2024/02/09 10:25:43;;;;;;;28.55;16.42;;;487.30;1612.80;;;;;;4840198;29;20030;-81
2024/02/09 10:28:13;;;;;;;87.90;44.72;;;512.00;1612.80;;;;;;4840341;29;20038;-71
2024/02/09 10:30:40;;;;;;;162.38;81.80;;;487.30;1612.80;;;;;;4840077;29;20033;-71
2024/02/09 10:33:10;;;;;;;57.28;28.10;;;512.00;1612.80;;;;;;4840483;29;20026;-71
2024/02/09 10:35:36;;;;;;;37.10;22.75;;;512.00;1612.80;;;;;;4840404;29;20087;-71
2024/02/09 10:38:02;;;;;;;47.00;24.40;;;512.10;1612.80;;;;;;4840003;29;20389;-71
2024/02/09 10:40:33;;;;;;;32.45;16.58;;;512.30;1612.80;;;;;;4840217;29;20022;-82
2024/02/09 10:43:04;;;;;;;119.18;54.65;;;512.40;1612.80;;;;;;4840145;29;20022;-84
2024/02/09 10:45:32;;;;;;;47.20;26.45;;;512.30;1612.80;;;;;;4840187;29;20018;-82
2024/02/09 10:48:01;;;;;;;38.28;18.17;;;512.40;1587.20;;;;;;4840040;29;20041;-82
2024/02/09 10:50:31;;;;;;;6.32;4.75;;;512.60;1587.20;;;;;;4840080;29;20033;-78
2024/02/09 10:53:00;;;;;;;70.18;36.80;;;512.80;1587.20;;;;;;4839430;29;20033;-80
2024/02/09 10:55:41;;;;;;;115.40;62.00;;;537.80;1587.20;;;;;;4840115;29;20511;-70
2024/02/09 10:58:10;;;;;;;82.55;43.53;;;538.10;1561.60;;;;;;4839665;29;20022;-71
2024/02/09 11:00:38;;;;;;;30.88;15.65;;;538.10;1536.00;;;;;;4839957;29;20030;-70
2024/02/09 11:03:04;;;;;;;55.92;30.80;;;538.00;1536.00;;;;;;4839726;29;20198;-73
2024/02/09 11:05:30;;;;;;;10.18;6.40;;;538.10;1536.00;;;;;;4839527;29;20026;-70
2024/02/09 11:07:56;;;;;;;20.33;13.88;;;538.00;1561.60;;;;;;4839461;29;20042;-70
2024/02/09 11:10:22;;;;;;;9.60;6.20;;;538.20;1561.60;;;;;;4840117;29;20033;-83
2024/02/09 11:12:58;;;;;;;9.27;6.57;;;538.50;1587.20;;;;;;4839515;29;20030;-82
2024/02/09 11:15:24;;;;;;;17.38;11.90;;;538.50;1536.00;;;;;;4839636;29;20022;-83
2024/02/09 11:17:50;;;;;;;25.92;15.73;;;538.20;1510.40;;;;;;4839565;29;20053;-83
2024/02/09 11:20:17;;;;;;;9.27;4.90;;;538.20;1536.00;;;;;;4839612;29;20106;-82
2024/02/09 11:22:44;;;;;;;11.07;7.85;;;538.20;1536.00;;;;;;4839524;29;20034;-82
2024/02/09 11:25:10;;;;;;;44.58;27.05;;;538.10;1561.60;;;;;;4839522;29;20034;-71
2024/02/09 11:27:39;;;;;;;9.80;6.38;;;538.00;1536.00;;;;;;4839666;29;20934;-71
2024/02/09 11:30:05;;;;;;;13.85;7.45;;;538.10;1536.00;;;;;;4839400;29;20112;-82
2024/02/09 11:32:37;;;;;;;26.60;17.95;;;538.30;1536.00;;;;;;4839041;29;20041;-71
2024/02/09 11:35:03;;;;;;;8.93;6.10;;;538.30;1510.40;;;;;;4839561;29;20034;-71
2024/02/09 11:37:29;;;;;;;11.10;8.10;;;538.40;1536.00;;;;;;4839089;29;20103;-71
2024/02/09 11:39:55;;;;;;;27.65;15.95;;;538.50;1510.40;;;;;;4839327;29;20026;-82
2024/02/09 11:42:20;;;;;;;45.35;31.30;;;538.50;1510.40;;;;;;4838861;29;20034;-84
2024/02/09 11:44:47;;;;;;;17.65;12.77;;;563.20;1536.00;;;;;;4839312;29;20054;-72
2024/02/09 11:47:13;;;;;;;36.78;25.55;;;538.50;1510.40;;;;;;4839287;29;20482;-82
2024/02/09 11:49:46;;;;;;;9.13;7.32;;;538.50;1510.40;;;;;;4838713;29;20034;-82
2024/02/09 11:52:12;;;;;;;15.13;11.90;;;538.50;1510.40;;;;;;4839098;29;20029;-82
2024/02/09 11:54:38;;;;;;;21.85;16.35;;;538.40;1510.40;;;;;;4839161;29;20401;-82
2024/02/09 11:57:04;;;;;;;11.02;5.68;;;538.50;1510.40;;;;;;4838883;29;20065;-71
2024/02/09 11:59:32;;;;;;;11.85;6.28;;;538.40;1510.40;;;;;;4838680;29;20030;-71
2024/02/09 12:01:58;;;;;;;6.70;4.72;;;538.30;1510.40;;;;;;4838766;29;20030;-81
2024/02/09 12:04:24;;;;;;;9.65;6.78;;;538.20;1536.00;;;;;;4838750;29;20038;-71
2024/02/09 12:06:52;;;;;;;12.25;7.85;;;538.00;1510.40;;;;;;4838185;29;20038;-71
2024/02/09 12:09:18;;;;;;;8.80;5.60;;;538.10;1510.40;;;;;;4838642;29;20170;-71
2024/02/09 12:11:47;;;;;;;11.07;6.97;;;538.00;1510.40;;;;;;4838850;29;20112;-82
2024/02/09 12:14:13;;;;;;;8.40;4.97;;;538.00;1510.40;;;;;;4839008;29;20473;-83
2024/02/09 12:16:39;;;;;;;16.10;7.50;;;538.00;1536.00;;;;;;4838956;29;20030;-78
2024/02/09 12:19:05;;;;;;;9.65;6.75;;;538.00;1510.40;;;;;;4839121;29;20365;-84
2024/02/09 12:21:32;;;;;;;26.55;18.23;;;538.00;1536.00;;;;;;4838251;29;20503;-82
2024/02/09 12:23:58;;;;;;;10.38;6.45;;;538.10;1510.40;;;;;;4838654;29;20049;-81
2024/02/09 12:26:24;;;;;;;15.45;8.60;;;538.10;1510.40;;;;;;4843485;29;20052;-80
2024/02/09 12:28:50;;;;;;;19.52;13.15;;;538.20;1510.40;;;;;;4845598;29;20030;-81
2024/02/09 12:31:16;;;;;;;12.20;9.68;;;538.30;1510.40;;;;;;4838595;29;20552;-82
2024/02/09 12:33:47;;;;;;;12.27;6.47;;;538.30;1510.40;;;;;;4838598;29;20553;-82
2024/02/09 12:36:23;;;;;;;11.75;9.02;;;538.50;1510.40;;;;;;4838762;29;20117;-82
2024/02/09 12:38:57;;;;;;;9.25;6.97;;;538.50;1510.40;;;;;;4838062;29;20362;-84
2024/02/09 12:41:24;;;;;;;9.98;6.38;;;538.30;1484.80;;;;;;4822081;29;20381;-82
2024/02/09 12:43:59;;;;;;;7.78;4.57;;;538.30;1510.40;;;;;;4838511;29;20106;-80
2024/02/09 12:46:26;;;;;;;8.52;5.20;;;538.20;1484.80;;;;;;4838416;29;20045;-82
2024/02/09 12:48:51;;;;;;;8.48;5.50;;;538.30;1536.00;;;;;;4838373;29;20052;-81
2024/02/09 12:51:20;;;;;;;10.38;8.00;;;538.20;1510.40;;;;;;4822063;29;20057;-77
2024/02/09 12:53:46;;;;;;;6.85;5.13;;;538.20;1510.40;;;;;;4838182;29;20073;-76
2024/02/09 12:56:12;;;;;;;9.10;6.97;;;538.00;1510.40;;;;;;4838485;29;20385;-75
2024/02/09 12:58:38;;;;;;;6.32;4.68;;;538.10;1484.80;;;;;;4838092;29;20029;-71
2024/02/09 13:01:04;;;;;;;7.47;4.15;;;538.00;1510.40;;;;;;4839392;29;20485;-71
2024/02/09 13:03:30;;;;;;;8.65;5.55;;;538.00;1510.40;;;;;;4841482;29;20117;-71
2024/02/09 13:05:56;;;;;;;9.85;8.85;;;537.80;1510.40;;;;;;4841907;29;20042;-71
2024/02/09 13:08:22;;;;;;;7.45;6.47;;;537.90;1536.00;;;;;;4841737;29;20045;-71
2024/02/09 13:10:50;;;;;;;9.93;6.90;;;538.00;1510.40;;;;;;4851428;29;20029;-81
2024/02/09 13:13:18;;;;;;;11.30;6.43;;;537.80;1536.00;;;;;;4843898;29;20037;-80
2024/02/09 13:15:44;;;;;;;8.05;5.05;;;537.70;1536.00;;;;;;4851721;29;20057;-77
2024/02/09 13:18:10;;;;;;;8.65;5.35;;;512.90;1536.00;;;;;;4827053;29;20076;-73
2024/02/09 13:20:42;;;;;;;14.52;7.97;;;512.80;1510.40;;;;;;4842297;29;20492;-82
2024/02/09 13:23:08;;;;;;;6.88;5.22;;;512.80;1510.40;;;;;;4841210;29;20029;-81
2024/02/09 13:25:35;;;;;;;9.10;7.45;;;512.80;1510.40;;;;;;4841839;29;20037;-81
2024/02/09 13:28:04;;;;;;;9.10;6.20;;;512.90;1510.40;;;;;;4841332;29;20529;-82
2024/02/09 13:30:30;;;;;;;15.50;12.13;;;512.90;1536.00;;;;;;4841369;29;20053;-71
2024/02/09 13:32:56;;;;;;;11.07;8.77;;;512.90;1510.40;;;;;;4841330;29;20104;-71
2024/02/09 13:35:26;;;;;;;8.95;6.95;;;512.90;1510.40;;;;;;4841593;29;20037;-71
2024/02/09 13:37:53;;;;;;;14.45;9.85;;;537.60;1536.00;;;;;;4842145;29;20022;-70
2024/02/09 13:40:19;;;;;;;11.85;7.80;;;512.90;1536.00;;;;;;4843071;29;20033;-71
2024/02/09 13:42:52;;;;;;;14.18;7.57;;;537.60;1561.60;;;;;;4842383;29;20026;-72
2024/02/09 13:45:25;;;;;;;17.85;15.15;;;512.80;1536.00;;;;;;4833952;29;20078;-71
2024/02/09 13:47:55;;;;;;;8.07;6.05;;;537.60;1536.00;;;;;;4839436;29;20038;-69
2024/02/09 13:50:25;;;;;;;8.77;6.43;;;537.70;1561.60;;;;;;4831738;29;20402;-71
2024/02/09 13:52:54;;;;;;;20.25;17.50;;;537.70;1561.60;;;;;;4830352;29;20030;-69
2024/02/09 13:55:22;;;;;;;28.83;16.45;;;537.70;1536.00;;;;;;4822847;29;20043;-72
2024/02/09 13:57:52;;;;;;;27.08;18.85;;;537.80;1536.00;;;;;;4836998;29;20512;-76
2024/02/09 14:00:18;;;;;;;31.77;21.92;;;537.80;1536.00;;;;;;4829837;29;20037;-71